Alcester, United Kingdom
Current Conditions -  °F | °C
As of 2:20 PM on Sunday 25 Jan 2015 (Local Time) from EGBB Reporting Station
Scattered Clouds Scattered Clouds  
Wind Chill: 41°   Ceiling: Unl
Heat Index: 46°   Visibility: 6mi
Dew Point: 39°   Wind: 10mph
Humidity: 76%   Direction: 240°WSW
Pressure: 30.3"   Gusts: NA
Location:  52.22°N, 1.87°W
Report Text: EGBB 251420Z 24009KT 210V270 9999 FEW015 SCT045 08/04 Q1026
Loading
Personal Weather Stations






























Interactive Weather Map New forecast layout! Learn more

10-Day Weather Forecast

Advertisements
Track Severe Weather on mobile